Time;durP1;ratioP1;P1;durP2;ratioP2;P2;SDS_P1;SDS_P2;PMS_P1;PMS_P2;Temp;Humidity;BMP_temperature;BMP_pressure;BME280_temperature;BME280_humidity;BME280_pressure;Samples;Min_cycle;Max_cycle;Signal;HPM_P1;HPM_P2
2023/10/18 00:00:25;;;;;;;3.30;2.33;;;3.80;99.90;;;4.72;100.00;97862.53;5017653;28;20467;-79
2023/10/18 00:02:56;;;;;;;5.67;3.17;;;3.80;99.90;;;4.62;100.00;97861.06;5017165;28;21001;-79
2023/10/18 00:05:26;;;;;;;7.23;3.30;;;3.80;99.90;;;4.68;100.00;97855.25;5017770;28;20461;-78
2023/10/18 00:07:57;;;;;;;3.47;2.37;;;3.80;99.90;;;4.64;100.00;97854.75;5018362;28;20465;-79
2023/10/18 00:10:27;;;;;;;3.37;2.37;;;3.80;99.90;;;4.65;100.00;97850.38;5020894;28;20514;-79
2023/10/18 00:12:58;;;;;;;3.73;2.30;;;3.80;99.90;;;4.67;100.00;97848.44;5024928;28;20459;-79
2023/10/18 00:15:27;;;;;;;3.50;2.67;;;3.80;99.90;;;4.69;100.00;97856.84;5022652;28;20991;-79
2023/10/18 00:17:57;;;;;;;3.23;2.60;;;3.70;99.90;;;4.65;100.00;97846.00;5022365;28;20558;-79
2023/10/18 00:20:26;;;;;;;4.97;2.70;;;3.70;99.90;;;4.67;100.00;97848.44;5023888;28;20532;-79
2023/10/18 00:22:57;;;;;;;4.67;2.47;;;3.70;99.90;;;4.64;100.00;97841.81;5024502;28;20472;-79
2023/10/18 00:25:25;;;;;;;2.70;2.50;;;3.70;99.90;;;4.67;100.00;97838.09;5022837;28;20466;-79
2023/10/18 00:27:56;;;;;;;3.70;2.50;;;3.70;99.90;;;4.67;100.00;97835.50;5022425;28;20489;-79
2023/10/18 00:30:29;;;;;;;8.90;2.50;;;3.70;99.90;;;4.67;100.00;97830.31;5023119;28;20510;-79
2023/10/18 00:33:02;;;;;;;2.97;2.47;;;3.70;99.90;;;4.65;100.00;97816.72;5019063;28;20456;-80
2023/10/18 00:35:32;;;;;;;6.70;2.80;;;3.60;99.90;;;4.65;100.00;97824.50;5017056;28;21045;-79
2023/10/18 00:38:04;;;;;;;3.57;2.17;;;3.60;99.90;;;4.61;100.00;97818.00;5016947;28;20524;-79
2023/10/18 00:40:35;;;;;;;5.10;3.17;;;3.70;99.90;;;4.55;100.00;97814.22;5017257;28;20527;-79
2023/10/18 00:43:14;;;;;;;3.50;2.40;;;3.70;99.90;;;4.48;100.00;97819.22;5016742;28;20941;-79
2023/10/18 00:45:47;;;;;;;4.17;2.70;;;3.60;99.90;;;4.49;100.00;97820.03;5017028;28;20837;-79
2023/10/18 00:48:23;;;;;;;4.47;2.60;;;3.50;99.90;;;4.49;100.00;97805.31;5017871;28;20465;-78
2023/10/18 00:50:54;;;;;;;3.40;2.53;;;3.50;99.90;;;4.48;100.00;97811.44;5018947;28;20934;-79
2023/10/18 00:53:30;;;;;;;3.07;2.40;;;3.50;99.90;;;4.48;100.00;97814.03;5018612;28;20494;-79
2023/10/18 00:56:01;;;;;;;3.70;2.77;;;3.50;99.90;;;4.45;100.00;97796.22;5018218;28;20450;-79
2023/10/18 00:58:34;;;;;;;4.03;2.27;;;3.60;99.90;;;4.46;100.00;97803.03;5016962;28;20455;-79
2023/10/18 01:01:09;;;;;;;6.40;2.37;;;3.50;99.90;;;4.42;100.00;97804.31;5018649;28;20471;-79
2023/10/18 01:03:45;;;;;;;6.40;3.00;;;3.40;99.90;;;4.32;100.00;97795.03;5018130;28;20468;-79
2023/10/18 01:06:24;;;;;;;2.87;2.40;;;3.40;99.90;;;4.28;100.00;97791.94;5017306;28;20516;-79
2023/10/18 01:08:55;;;;;;;5.60;2.60;;;3.40;99.90;;;4.34;100.00;97793.91;5020257;28;20459;-80
2023/10/18 01:11:28;;;;;;;3.57;2.30;;;3.50;99.90;;;4.37;100.00;97791.00;5024132;28;20490;-79
2023/10/18 01:13:59;;;;;;;3.93;2.93;;;3.40;99.90;;;4.37;100.00;97791.00;5028326;28;20554;-78
2023/10/18 01:16:30;;;;;;;3.47;2.60;;;3.50;99.90;;;4.36;100.00;97786.81;5027851;28;20470;-79
2023/10/18 01:19:04;;;;;;;3.43;2.90;;;3.50;99.90;;;4.35;100.00;97787.78;5023038;28;20474;-79
2023/10/18 01:21:35;;;;;;;4.30;2.40;;;3.50;99.90;;;4.34;100.00;97780.97;5026516;28;20499;-80
2023/10/18 01:24:08;;;;;;;5.43;2.50;;;3.50;99.90;;;4.33;100.00;97773.38;5023626;28;20594;-79
2023/10/18 01:26:40;;;;;;;3.00;2.17;;;3.40;99.90;;;4.30;100.00;97777.09;5022723;28;20482;-79
2023/10/18 01:29:09;;;;;;;2.60;2.20;;;3.40;99.90;;;4.23;100.00;97783.84;5020462;28;20468;-79
2023/10/18 01:31:44;;;;;;;2.87;2.50;;;3.30;99.90;;;4.26;100.00;97768.00;5018316;28;20507;-80
2023/10/18 01:34:15;;;;;;;4.77;2.30;;;3.50;99.90;;;4.25;100.00;97770.75;5017131;28;20471;-79
2023/10/18 01:36:44;;;;;;;3.70;2.70;;;3.30;99.90;;;4.26;100.00;97773.19;5017895;28;20916;-79
2023/10/18 01:39:20;;;;;;;3.80;2.50;;;3.40;99.90;;;4.27;100.00;97774.00;5017782;28;20466;-79
2023/10/18 01:41:53;;;;;;;2.80;2.17;;;3.30;99.90;;;4.27;100.00;97763.66;5016721;28;20466;-79
2023/10/18 01:44:30;;;;;;;10.40;2.53;;;3.30;99.90;;;4.22;100.00;97764.09;5017424;28;20474;-79
2023/10/18 01:47:06;;;;;;;5.10;3.20;;;3.20;99.90;;;4.15;100.00;97759.69;5016957;28;20471;-79
2023/10/18 01:49:43;;;;;;;6.53;2.73;;;3.10;99.90;;;4.08;100.00;97756.91;5018225;28;20513;-79
2023/10/18 01:52:17;;;;;;;3.20;2.00;;;3.10;99.90;;;4.10;100.00;97749.78;5016768;28;20504;-79
2023/10/18 01:54:47;;;;;;;4.20;2.73;;;3.10;99.90;;;4.08;100.00;97743.97;5017659;28;20810;-79
2023/10/18 01:57:20;;;;;;;3.03;2.20;;;3.20;99.90;;;4.13;100.00;97741.72;5017558;28;20466;-78
2023/10/18 01:59:50;;;;;;;5.50;2.30;;;3.20;99.90;;;4.09;100.00;97748.19;5020116;28;21184;-79
2023/10/18 02:02:23;;;;;;;6.57;2.40;;;3.20;99.90;;;4.07;100.00;97747.53;5020808;28;21042;-79
2023/10/18 02:04:54;;;;;;;3.50;2.20;;;3.20;99.90;;;4.05;100.00;97739.13;5020230;28;20554;-80
2023/10/18 02:07:25;;;;;;;6.53;3.27;;;3.10;99.90;;;3.97;100.00;97747.63;5021399;28;20501;-79
2023/10/18 02:09:57;;;;;;;5.77;2.30;;;3.20;99.90;;;4.00;100.00;97742.16;5020496;28;21012;-80
2023/10/18 02:12:29;;;;;;;2.93;2.40;;;3.20;99.90;;;4.02;100.00;97729.06;5018550;28;20740;-79
2023/10/18 02:15:04;;;;;;;2.87;2.37;;;3.20;99.90;;;4.03;100.00;97735.84;5020070;28;20533;-79
2023/10/18 02:17:34;;;;;;;3.17;2.20;;;3.20;99.90;;;4.08;100.00;97738.81;5021758;28;20493;-79
2023/10/18 02:20:14;;;;;;;4.53;2.50;;;3.20;99.90;;;4.12;100.00;97734.94;5020605;28;20471;-79
2023/10/18 02:22:46;;;;;;;2.20;2.00;;;3.30;99.90;;;4.12;100.00;97728.97;5020185;28;20516;-79
2023/10/18 02:25:36;;;;;;;2.40;2.20;;;3.20;99.90;;;4.14;100.00;97721.84;5021252;28;20474;-79
2023/10/18 02:28:09;;;;;;;3.97;2.70;;;3.20;99.90;;;4.15;100.00;97723.47;5019531;28;20463;-79
2023/10/18 02:30:39;;;;;;;3.67;2.30;;;3.20;99.90;;;4.15;100.00;97724.28;5021730;28;20479;-79
2023/10/18 02:33:10;;;;;;;6.23;2.50;;;3.20;99.90;;;4.12;100.00;97719.41;5021941;28;20453;-79
2023/10/18 02:35:43;;;;;;;2.53;2.23;;;3.20;99.90;;;4.12;100.00;97719.41;5020805;28;20479;-79
2023/10/18 02:38:15;;;;;;;3.70;2.60;;;3.20;99.90;;;4.06;100.00;97709.69;5019434;28;20885;-79
2023/10/18 02:40:45;;;;;;;4.03;2.73;;;3.10;99.90;;;4.07;100.00;97719.06;5019336;28;20545;-79
2023/10/18 02:43:18;;;;;;;4.90;2.20;;;3.20;99.90;;;4.04;100.00;97706.44;5019798;28;21393;-79
2023/10/18 02:45:51;;;;;;;2.60;2.20;;;3.20;99.90;;;4.06;100.00;97701.94;5024582;28;20510;-79
2023/10/18 02:48:24;;;;;;;2.33;1.93;;;3.20;99.90;;;4.08;100.00;97707.75;5022385;28;20469;-79
2023/10/18 02:50:57;;;;;;;3.43;2.30;;;3.20;99.90;;;4.06;100.00;97699.34;5023076;28;20450;-79
2023/10/18 02:53:27;;;;;;;3.90;2.43;;;3.10;99.90;;;4.07;100.00;97695.78;5023406;28;21120;-79
2023/10/18 02:55:57;;;;;;;3.90;2.30;;;3.10;99.90;;;4.05;100.00;97692.56;5023986;28;20486;-80
2023/10/18 02:58:32;;;;;;;5.50;3.00;;;3.10;99.90;;;4.01;100.00;97686.06;5024150;28;20462;-79
2023/10/18 03:01:06;;;;;;;4.43;2.33;;;3.10;99.90;;;3.93;100.00;97686.00;5021938;28;21029;-79
2023/10/18 03:03:39;;;;;;;4.40;2.60;;;3.10;99.90;;;3.98;100.00;97683.78;5023471;28;20546;-79
2023/10/18 03:06:14;;;;;;;3.27;2.13;;;3.10;99.90;;;4.02;100.00;97672.97;5021571;28;20459;-79
2023/10/18 03:08:49;;;;;;;3.10;2.40;;;3.10;99.90;;;3.98;100.00;97673.44;5021548;28;20587;-79
2023/10/18 03:11:20;;;;;;;2.40;2.20;;;3.10;99.90;;;3.96;100.00;97673.59;5016042;28;20497;-79
2023/10/18 03:13:57;;;;;;;2.47;2.10;;;3.00;99.90;;;3.92;100.00;97681.81;5018158;28;20466;-79
2023/10/18 03:16:38;;;;;;;4.07;2.37;;;2.90;99.90;;;3.93;100.00;97684.25;5017639;28;20551;-79
2023/10/18 03:19:12;;;;;;;2.97;2.77;;;3.00;99.90;;;3.92;100.00;97679.25;5018932;28;20459;-78
2023/10/18 03:21:47;;;;;;;2.20;2.00;;;3.00;99.90;;;3.91;100.00;97682.78;5017553;28;20477;-78
2023/10/18 03:24:19;;;;;;;3.83;2.33;;;3.10;99.90;;;3.94;100.00;97665.19;5018204;28;20463;-79
2023/10/18 03:26:50;;;;;;;4.43;2.63;;;3.10;99.90;;;4.01;100.00;97665.38;5017105;28;20463;-76
2023/10/18 03:29:21;;;;;;;4.70;2.50;;;3.00;99.90;;;4.02;100.00;97661.81;5016864;28;20481;-79
2023/10/18 03:31:52;;;;;;;4.10;2.83;;;3.20;99.90;;;4.04;100.00;97670.22;5017040;28;20855;-80
2023/10/18 03:34:22;;;;;;;6.33;2.80;;;3.10;99.90;;;4.02;100.00;97660.06;5018050;28;20562;-79
2023/10/18 03:36:52;;;;;;;3.17;2.37;;;3.20;99.90;;;4.05;100.00;97666.69;5018290;28;20496;-79
2023/10/18 03:39:24;;;;;;;2.53;2.27;;;3.20;99.90;;;4.01;100.00;97662.78;5019368;28;20500;-79
2023/10/18 03:41:58;;;;;;;7.00;2.70;;;3.20;99.90;;;4.03;100.00;97653.06;5019444;28;20486;-79
2023/10/18 03:44:32;;;;;;;2.63;2.07;;;3.20;99.90;;;4.05;100.00;97646.81;5018345;28;20465;-78
2023/10/18 03:47:11;;;;;;;18.93;3.30;;;3.10;99.90;;;4.03;100.00;97645.31;5019733;28;20458;-78
2023/10/18 03:49:42;;;;;;;4.33;2.40;;;3.20;99.90;;;4.05;100.00;97646.00;5021804;28;20470;-78
2023/10/18 03:52:17;;;;;;;2.80;2.23;;;3.20;99.90;;;4.07;100.00;97650.03;5016892;28;20876;-81
2023/10/18 03:54:57;;;;;;;4.30;2.50;;;3.20;99.90;;;4.07;100.00;97659.56;5016998;28;20465;-79
2023/10/18 03:57:29;;;;;;;5.00;2.70;;;3.10;99.90;;;4.09;100.00;97655.06;5019320;28;21054;-79
2023/10/18 04:00:28;;;;;;;5.47;2.70;;;3.10;99.90;;;4.12;100.00;97641.81;5016885;28;20466;-79
2023/10/18 04:02:56;;;;;;;5.17;2.93;;;3.20;99.90;;;4.15;100.00;97631.16;5016445;28;20470;-79
2023/10/18 04:05:38;;;;;;;8.43;3.30;;;3.20;99.90;;;4.15;100.00;97640.69;5017392;28;20458;-79
2023/10/18 04:08:13;;;;;;;4.30;2.80;;;3.20;99.90;;;4.15;100.00;97646.66;5018146;28;20543;-80
2023/10/18 04:10:44;;;;;;;4.20;3.30;;;3.20;99.90;;;4.12;100.00;97641.81;5017621;28;20480;-79
2023/10/18 04:13:15;;;;;;;4.80;2.80;;;3.20;99.90;;;4.04;100.00;97645.16;5015993;28;21278;-79
2023/10/18 04:15:57;;;;;;;4.50;3.00;;;3.30;99.90;;;4.07;100.00;97638.88;5017454;28;20927;-79
2023/10/18 04:18:29;;;;;;;9.60;3.83;;;3.20;99.90;;;4.03;100.00;97635.78;5015986;28;20458;-79
2023/10/18 04:20:59;;;;;;;9.67;5.40;;;3.20;99.90;;;4.08;100.00;97635.31;5016756;28;20459;-79
2023/10/18 04:23:30;;;;;;;8.27;4.17;;;3.20;99.90;;;4.09;100.00;97634.38;5019548;28;20528;-79
2023/10/18 04:26:00;;;;;;;9.63;4.67;;;3.20;99.90;;;4.09;100.00;97623.22;5017893;28;20462;-79
2023/10/18 04:28:37;;;;;;;7.50;4.67;;;3.20;99.90;;;4.03;100.00;97619.44;5020971;28;20453;-79
2023/10/18 04:31:11;;;;;;;3.60;3.00;;;3.20;99.90;;;4.04;100.00;97614.13;5022055;28;20531;-79
2023/10/18 04:33:43;;;;;;;5.43;3.70;;;3.30;99.90;;;4.09;100.00;97621.44;5018516;28;20663;-79
2023/10/18 04:36:14;;;;;;;5.87;3.23;;;3.20;99.90;;;4.07;100.00;97615.59;5017704;28;20955;-79
2023/10/18 04:38:46;;;;;;;4.10;2.97;;;3.20;99.90;;;4.05;100.00;97604.59;5017476;28;20502;-78
2023/10/18 04:41:28;;;;;;;4.10;3.33;;;3.20;99.90;;;4.05;100.00;97602.00;5017398;28;20465;-79
2023/10/18 04:44:10;;;;;;;4.70;3.57;;;3.20;99.90;;;4.02;100.00;97605.72;5015762;28;20471;-79
2023/10/18 04:46:48;;;;;;;3.33;2.60;;;3.20;99.90;;;3.95;100.00;97593.56;5019156;28;20520;-79
2023/10/18 04:49:22;;;;;;;7.53;2.90;;;3.20;99.90;;;3.89;100.00;97589.81;5017888;28;20473;-79
2023/10/18 04:51:54;;;;;;;4.67;3.30;;;3.10;99.90;;;3.84;100.00;97581.75;5020571;28;21679;-79
2023/10/18 04:54:35;;;;;;;5.27;3.93;;;3.00;99.90;;;3.81;100.00;97584.63;5020159;28;20479;-80
2023/10/18 04:57:10;;;;;;;3.93;3.00;;;3.00;99.90;;;3.82;100.00;97580.25;5019488;28;20468;-80
2023/10/18 04:59:45;;;;;;;4.90;2.63;;;3.00;99.90;;;3.82;100.00;97572.50;5021075;28;20887;-80
2023/10/18 05:02:26;;;;;;;4.90;3.20;;;2.90;99.90;;;3.88;100.00;97569.31;5020609;28;20461;-79
2023/10/18 05:04:57;;;;;;;3.43;2.77;;;2.90;99.90;;;3.82;100.00;97562.16;5019167;28;21387;-80
2023/10/18 05:07:41;;;;;;;4.27;3.17;;;3.00;99.90;;;3.81;100.00;97563.16;5017929;28;20465;-79
2023/10/18 05:10:16;;;;;;;4.40;3.33;;;2.90;99.90;;;3.78;100.00;97558.28;5022165;28;20470;-80
2023/10/18 05:12:53;;;;;;;5.37;3.33;;;2.90;99.90;;;3.79;100.00;97560.69;5025023;28;20477;-80
2023/10/18 05:15:30;;;;;;;4.73;3.20;;;3.00;99.90;;;3.76;100.00;97552.44;5022323;28;20476;-80
2023/10/18 05:18:05;;;;;;;3.43;2.20;;;3.00;99.90;;;3.78;100.00;97558.28;5017412;28;20465;-79
2023/10/18 05:20:55;;;;;;;24.53;3.10;;;2.90;99.90;;;3.80;100.00;97561.50;5018541;28;20510;-80
2023/10/18 05:23:25;;;;;;;4.27;3.13;;;2.90;99.90;;;3.82;100.00;97560.38;5018508;28;20495;-80
2023/10/18 05:26:08;;;;;;;3.27;2.93;;;3.00;99.90;;;3.79;100.00;97558.13;5017300;28;20471;-79
2023/10/18 05:28:48;;;;;;;8.83;3.60;;;3.10;99.90;;;3.84;100.00;97553.28;5020788;28;20477;-80
2023/10/18 05:34:22;;;;;;;6.13;3.30;;;3.10;99.90;;;3.88;100.00;97561.56;5023530;28;20500;-80
2023/10/18 05:37:14;;;;;;;3.63;3.07;;;3.20;99.90;;;3.87;100.00;97567.69;5021487;28;21021;-80
2023/10/18 05:40:19;;;;;;;7.20;3.90;;;3.10;99.90;;;3.88;100.00;97561.56;5022434;28;20565;-80
2023/10/18 05:42:45;;;;;;;5.90;3.43;;;3.10;99.90;;;3.89;100.00;97555.38;5022100;28;20461;-79
2023/10/18 05:45:16;;;;;;;8.27;3.73;;;3.10;99.90;;;3.90;100.00;97549.25;5022528;28;20500;-79
2023/10/18 05:47:54;;;;;;;5.47;3.30;;;3.10;99.90;;;3.92;100.00;97542.16;5022624;28;20459;-79
2023/10/18 05:50:24;;;;;;;6.10;4.23;;;3.10;99.90;;;3.96;100.00;97541.69;5023449;28;20833;-79
2023/10/18 05:52:57;;;;;;;5.93;4.17;;;3.20;99.90;;;3.98;100.00;97536.38;5028755;28;20501;-80
2023/10/18 05:55:30;;;;;;;5.23;4.03;;;3.10;99.90;;;4.01;100.00;97528.28;5028275;28;20457;-79
2023/10/18 05:58:04;;;;;;;6.37;4.37;;;3.20;99.90;;;4.02;100.00;97522.16;5029488;28;20496;-77
2023/10/18 06:00:36;;;;;;;8.20;4.20;;;3.20;99.90;;;4.01;100.00;97526.50;5028900;28;20457;-79
2023/10/18 06:03:07;;;;;;;6.13;3.97;;;3.20;99.90;;;3.94;100.00;97524.72;5029613;28;20836;-80
2023/10/18 06:05:38;;;;;;;6.57;3.90;;;3.20;99.90;;;3.92;100.00;97542.16;5025903;28;20462;-80
2023/10/18 06:08:11;;;;;;;5.73;3.83;;;3.20;99.90;;;3.94;100.00;97535.06;5023085;28;20457;-80
2023/10/18 06:10:43;;;;;;;6.67;3.63;;;3.20;99.90;;;3.96;100.00;97533.91;5022158;28;20866;-79
2023/10/18 06:13:20;;;;;;;5.47;4.00;;;3.20;99.90;;;3.97;100.00;97525.19;5022986;28;20486;-79
2023/10/18 06:15:51;;;;;;;6.60;4.47;;;3.10;99.90;;;3.99;100.00;97525.06;5019394;28;20905;-80
2023/10/18 06:18:26;;;;;;;6.07;4.43;;;3.20;99.90;;;4.03;100.00;97519.38;5022683;28;20545;-78
2023/10/18 06:20:59;;;;;;;5.77;3.80;;;3.20;99.90;;;4.00;100.00;97521.47;5022919;28;20609;-79
2023/10/18 06:23:37;;;;;;;8.70;3.73;;;3.10;99.90;;;3.99;100.00;97527.63;5023260;28;20567;-79
2023/10/18 06:29:00;;;;;;;5.80;4.70;;;3.20;99.90;;;4.02;100.00;97527.31;5015493;28;20820;-80
2023/10/18 06:31:31;;;;;;;6.73;4.10;;;3.20;99.90;;;4.07;100.00;97535.41;5023303;28;20492;-80
2023/10/18 06:34:04;;;;;;;10.37;4.80;;;3.20;99.90;;;4.05;100.00;97534.75;5020799;28;21109;-79
2023/10/18 06:36:39;;;;;;;8.03;5.10;;;3.30;99.90;;;4.07;100.00;97525.88;5021042;28;20483;-79
2023/10/18 06:39:24;;;;;;;8.67;4.97;;;3.40;99.90;;;4.16;100.00;97531.88;5020958;28;20551;-79
2023/10/18 06:41:55;;;;;;;7.50;5.03;;;3.40;99.90;;;4.21;100.00;97534.78;5022718;28;20462;-79
2023/10/18 06:44:29;;;;;;;7.40;4.70;;;3.30;99.90;;;4.20;100.00;97533.16;5025305;28;21006;-79
2023/10/18 06:47:01;;;;;;;8.50;5.20;;;3.40;99.90;;;4.22;100.00;97533.81;5030218;28;20465;-79
2023/10/18 06:49:34;;;;;;;11.40;5.40;;;3.30;99.90;;;4.27;100.00;97534.13;5030153;28;20545;-80
2023/10/18 06:52:06;;;;;;;7.30;5.17;;;3.40;99.90;;;4.32;100.00;97531.88;5027027;28;20556;-79
2023/10/18 06:54:38;;;;;;;6.97;4.30;;;3.40;99.90;;;4.36;100.00;97524.59;5027440;28;21042;-79
2023/10/18 06:57:16;;;;;;;9.40;5.97;;;3.40;99.90;;;4.39;100.00;97519.09;5028630;28;20469;-79
2023/10/18 06:59:48;;;;;;;7.30;4.47;;;3.40;99.90;;;4.40;100.00;97513.78;5027884;28;20916;-79
2023/10/18 07:02:27;;;;;;;11.97;5.70;;;3.50;99.90;;;4.48;100.00;97513.75;5030121;28;20548;-79
2023/10/18 07:04:56;;;;;;;10.07;5.77;;;3.60;99.90;;;4.52;100.00;97502.13;5027066;28;20474;-79
2023/10/18 07:07:29;;;;;;;10.27;5.00;;;3.70;99.90;;;4.58;100.00;97504.06;5021546;28;20965;-79
2023/10/18 07:10:05;;;;;;;11.07;5.63;;;3.70;99.90;;;4.62;100.00;97498.56;5021092;28;20463;-79
2023/10/18 07:12:47;;;;;;;7.17;5.47;;;3.80;99.90;;;4.68;100.00;97503.91;5021871;28;20508;-80
2023/10/18 07:15:22;;;;;;;11.07;5.27;;;3.90;99.90;;;4.73;100.00;97505.97;5020085;28;20989;-79
2023/10/18 07:17:53;;;;;;;6.73;4.90;;;3.90;99.90;;;4.77;100.00;97502.09;5020075;28;20468;-80
2023/10/18 07:20:25;;;;;;;10.63;5.80;;;4.00;99.90;;;4.84;100.00;97493.50;5022140;28;20464;-80
2023/10/18 07:22:57;;;;;;;8.33;5.17;;;4.10;99.90;;;4.93;100.00;97494.28;5022634;28;20995;-79
2023/10/18 07:25:27;;;;;;;6.03;4.90;;;4.20;99.90;;;4.98;100.00;97495.44;5020947;28;21047;-80
2023/10/18 07:28:01;;;;;;;11.83;6.50;;;4.30;99.90;;;5.06;100.00;97484.25;5020774;28;20465;-79
2023/10/18 07:30:38;;;;;;;10.00;5.40;;;4.40;99.90;;;5.16;100.00;97473.69;5020147;28;20477;-79
2023/10/18 07:33:12;;;;;;;11.87;6.07;;;4.40;99.90;;;5.21;100.00;97477.38;5021987;28;20550;-79
2023/10/18 07:35:45;;;;;;;9.77;6.27;;;4.50;99.90;;;5.26;100.00;97477.69;5020943;28;20545;-79
2023/10/18 07:38:25;;;;;;;14.47;5.40;;;4.50;99.90;;;5.34;100.00;97474.28;5020824;28;20847;-79
2023/10/18 07:40:59;;;;;;;8.13;5.40;;;4.60;99.90;;;5.40;100.00;97479.59;5020811;28;20466;-80
2023/10/18 07:43:32;;;;;;;10.67;6.27;;;4.70;99.90;;;5.45;100.00;97477.28;5027998;28;20469;-79
2023/10/18 07:46:09;;;;;;;10.40;6.00;;;4.80;99.90;;;5.52;100.00;97473.03;5027148;28;20492;-80
2023/10/18 07:48:45;;;;;;;9.57;5.90;;;4.80;99.90;;;5.57;100.00;97470.75;5029614;28;20808;-80
2023/10/18 07:51:26;;;;;;;10.23;5.13;;;4.90;99.90;;;5.63;100.00;97458.06;5026453;28;20564;-80
2023/10/18 07:53:57;;;;;;;13.13;5.57;;;5.00;99.90;;;5.66;100.00;97457.75;5026073;28;20482;-79
2023/10/18 07:56:29;;;;;;;8.20;5.20;;;5.10;99.90;;;5.68;100.00;97450.59;5025924;28;20457;-79
2023/10/18 08:01:51;;;;;;;8.50;5.20;;;5.10;99.90;;;5.77;100.00;97454.75;5025031;28;20563;-79
2023/10/18 08:04:21;;;;;;;6.20;4.80;;;5.10;99.90;;;5.83;100.00;97459.28;5021826;28;21033;-79
2023/10/18 08:06:50;;;;;;;9.13;5.30;;;5.20;99.90;;;5.88;100.00;97457.00;5019951;28;20468;-79
2023/10/18 08:09:28;;;;;;;14.97;5.83;;;5.20;99.90;;;5.93;100.00;97441.72;5020436;28;20493;-79
2023/10/18 08:12:05;;;;;;;7.80;5.60;;;5.20;99.90;;;5.97;100.00;97437.81;5019234;28;20502;-80
2023/10/18 08:14:37;;;;;;;10.90;5.33;;;5.30;99.90;;;6.04;100.00;97426.53;5019461;28;20593;-80
2023/10/18 08:17:09;;;;;;;7.17;5.30;;;5.40;99.90;;;6.08;100.00;97424.41;5018738;28;20574;-80
2023/10/18 08:19:44;;;;;;;8.70;5.80;;;5.40;99.90;;;6.15;100.00;97427.09;5019773;28;20547;-79
2023/10/18 08:22:27;;;;;;;9.73;5.20;;;5.40;99.90;;;6.17;100.00;97423.38;5020634;28;20495;-80
2023/10/18 08:24:59;;;;;;;13.50;5.37;;;5.50;99.90;;;6.19;100.00;97418.81;5020497;28;20989;-79
2023/10/18 08:27:30;;;;;;;11.17;6.00;;;5.50;99.90;;;6.25;100.00;97418.09;5019657;28;20545;-80
2023/10/18 08:30:21;;;;;;;8.43;5.40;;;5.60;99.90;;;6.30;100.00;97410.59;5019881;28;20473;-80
2023/10/18 08:32:52;;;;;;;8.47;4.77;;;5.60;99.90;;;6.33;100.00;97404.25;5021253;28;20461;-79
2023/10/18 08:35:22;;;;;;;9.40;5.80;;;5.70;99.90;;;6.40;100.00;97420.75;5018771;28;20862;-80
2023/10/18 08:37:53;;;;;;;11.73;6.30;;;5.80;99.90;;;6.44;100.00;97416.81;5019769;28;20513;-79
2023/10/18 08:40:36;;;;;;;7.07;5.03;;;5.80;99.90;;;6.49;100.00;97411.91;5021918;28;20470;-79
2023/10/18 08:43:17;;;;;;;9.13;5.20;;;5.80;99.90;;;6.53;100.00;97405.34;5025770;28;20882;-79
2023/10/18 08:45:49;;;;;;;10.27;6.13;;;5.90;99.90;;;6.57;100.00;97397.03;5024252;28;20515;-80
2023/10/18 08:48:27;;;;;;;12.87;6.07;;;5.90;99.90;;;6.60;100.00;97408.84;5023437;28;20553;-79
2023/10/18 08:51:02;;;;;;;10.83;5.97;;;6.00;99.90;;;6.69;100.00;97404.41;5025768;28;20492;-80
2023/10/18 08:53:41;;;;;;;14.13;6.00;;;6.00;99.90;;;6.71;100.00;97392.03;5022864;28;20566;-80
2023/10/18 08:56:13;;;;;;;11.30;6.10;;;6.10;99.90;;;6.77;100.00;97388.72;5022556;28;20494;-79
2023/10/18 08:58:47;;;;;;;11.07;5.43;;;6.20;99.90;;;6.80;100.00;97377.97;5027063;28;20458;-80
2023/10/18 09:01:21;;;;;;;9.40;5.63;;;6.20;99.90;;;6.83;100.00;97360.25;5021525;28;20464;-80
2023/10/18 09:03:49;;;;;;;8.33;5.03;;;6.20;99.90;;;6.87;100.00;97369.25;5018489;28;21019;-80
2023/10/18 09:06:31;;;;;;;19.07;6.50;;;6.30;99.90;;;6.91;100.00;97372.31;5018365;28;20462;-80
2023/10/18 09:09:05;;;;;;;12.40;7.13;;;6.30;99.90;;;6.97;100.00;97366.41;5022813;28;20466;-79
2023/10/18 09:11:47;;;;;;;12.37;6.30;;;6.40;99.90;;;7.00;100.00;97361.66;5022590;28;20473;-80
2023/10/18 09:14:17;;;;;;;10.70;5.80;;;6.40;99.90;;;7.05;100.00;97356.69;5023063;28;20535;-80
2023/10/18 09:16:48;;;;;;;10.50;6.40;;;6.50;99.90;;;7.08;100.00;97347.72;5022401;28;20585;-79
2023/10/18 09:19:20;;;;;;;19.20;5.80;;;6.60;99.90;;;7.13;100.00;97348.00;5022575;28;20559;-80
2023/10/18 09:21:57;;;;;;;8.63;5.67;;;6.60;99.90;;;7.19;100.00;97344.66;5022568;28;20471;-80
2023/10/18 09:24:30;;;;;;;17.10;6.57;;;6.60;99.90;;;7.25;100.00;97346.56;5023395;28;20973;-79
2023/10/18 09:27:05;;;;;;;8.13;5.97;;;6.70;99.90;;;7.32;100.00;97337.03;5022259;28;20511;-79
2023/10/18 09:29:36;;;;;;;12.77;6.10;;;6.80;99.90;;;7.39;100.00;97335.28;5023538;28;20475;-79
2023/10/18 09:32:10;;;;;;;10.53;5.90;;;6.80;99.90;;;7.44;100.00;97340.75;5022797;28;20496;-80
2023/10/18 09:34:42;;;;;;;9.37;6.10;;;6.80;99.90;;;7.50;100.00;97331.38;5022149;28;20489;-79
2023/10/18 09:37:13;;;;;;;9.27;6.30;;;7.00;99.90;;;7.58;100.00;97323.47;5026378;28;20557;-80
2023/10/18 09:39:45;;;;;;;10.50;5.97;;;7.10;99.90;;;7.63;100.00;97322.91;5029404;28;20953;-80
2023/10/18 09:42:16;;;;;;;14.17;6.70;;;7.00;99.90;;;7.67;100.00;97311.94;5030664;28;20470;-79
2023/10/18 09:44:47;;;;;;;9.77;6.90;;;7.00;99.90;;;7.69;100.00;97314.34;5031228;28;20466;-80
2023/10/18 09:47:23;;;;;;;8.73;6.10;;;7.20;99.90;;;7.76;100.00;97304.81;5029324;28;20464;-79
2023/10/18 09:49:56;;;;;;;10.23;6.70;;;7.20;99.90;;;7.81;100.00;97307.69;5028870;28;21443;-79
2023/10/18 09:52:31;;;;;;;12.17;6.93;;;7.30;99.90;;;7.89;100.00;97297.09;5030471;28;20461;-80
2023/10/18 09:55:16;;;;;;;12.40;6.03;;;7.20;99.90;;;7.96;100.00;97301.38;5029700;28;20485;-79
2023/10/18 09:57:59;;;;;;;18.90;7.90;;;7.40;99.90;;;8.01;100.00;97287.81;5021496;28;20479;-80
2023/10/18 10:00:31;;;;;;;10.30;6.50;;;7.50;99.90;;;8.06;100.00;97275.81;5023589;28;20952;-80
2023/10/18 10:03:10;;;;;;;11.30;6.53;;;7.60;99.90;;;8.15;100.00;97286.09;5022685;28;20486;-79
2023/10/18 10:05:44;;;;;;;9.07;6.00;;;7.70;99.90;;;8.22;100.00;97282.53;5020434;28;20465;-80
2023/10/18 10:08:15;;;;;;;11.20;6.87;;;7.80;99.90;;;8.30;100.00;97281.59;5020177;28;20467;-80
2023/10/18 10:10:49;;;;;;;10.10;6.53;;;7.90;99.90;;;8.36;100.00;97276.44;5020783;28;20686;-79
2023/10/18 10:13:25;;;;;;;11.70;6.27;;;7.90;99.90;;;8.45;100.00;97275.28;5023571;28;20653;-79
2023/10/18 10:16:03;;;;;;;10.10;6.10;;;8.00;99.90;;;8.50;100.00;97269.50;5021409;28;20608;-79
2023/10/18 10:18:36;;;;;;;10.10;6.20;;;8.10;99.90;;;8.55;100.00;97274.94;5019122;28;21178;-80
2023/10/18 10:21:11;;;;;;;11.23;6.97;;;8.10;99.90;;;8.61;100.00;97283.78;5021751;28;20458;-80
2023/10/18 10:23:43;;;;;;;13.27;6.27;;;8.20;99.90;;;8.66;100.00;97278.78;5023097;28;20461;-79
2023/10/18 10:26:15;;;;;;;11.50;5.80;;;8.20;99.90;;;8.74;100.00;97273.41;5020128;28;20557;-79
2023/10/18 10:32:19;;;;;;;9.97;6.17;;;8.40;99.90;;;8.81;100.00;97269.03;5106774;27;20574;-80
2023/10/18 10:34:50;;;;;;;12.40;6.00;;;8.40;99.90;;;8.89;100.00;97261.03;5083714;28;20833;-81
2023/10/18 10:37:23;;;;;;;12.37;6.80;;;8.40;99.90;;;8.89;100.00;97258.41;5086790;28;20952;-82
2023/10/18 10:40:18;;;;;;;11.37;5.87;;;8.50;99.90;;;8.93;100.00;97247.41;5083544;28;20456;-81
2023/10/18 10:42:48;;;;;;;9.03;6.00;;;8.50;99.90;;;8.94;100.00;97249.03;5084293;28;20559;-81
2023/10/18 10:45:35;;;;;;;9.60;6.13;;;8.50;99.90;;;9.00;100.00;97240.41;5085501;28;20923;-82
2023/10/18 10:48:36;;;;;;;9.47;6.43;;;8.50;99.90;;;9.07;100.00;97235.22;5085374;28;20593;-81
2023/10/18 10:51:09;;;;;;;13.37;7.77;;;8.60;99.90;;;9.13;100.00;97226.59;5085368;28;20490;-81
2023/10/18 10:53:49;;;;;;;13.27;7.67;;;8.60;99.90;;;9.18;100.00;97219.00;5085580;28;20477;-82
2023/10/18 10:56:26;;;;;;;14.50;7.67;;;8.60;99.90;;;9.23;100.00;97231.44;5086072;28;20676;-82
2023/10/18 10:59:09;;;;;;;13.87;6.60;;;8.70;99.90;;;9.26;100.00;97229.25;5088484;28;20450;-81
2023/10/18 11:02:06;;;;;;;10.17;6.47;;;8.80;99.90;;;9.27;100.00;97228.22;5087596;28;20459;-82
2023/10/18 11:04:49;;;;;;;9.23;5.90;;;8.80;99.90;;;9.33;100.00;97216.22;5074221;28;20462;-81
2023/10/18 11:07:23;;;;;;;14.87;6.70;;;8.80;99.90;;;9.36;100.00;97205.38;5086666;28;20463;-82